Time;durP1;ratioP1;P1;durP2;ratioP2;P2;SDS_P1;SDS_P2;PMS_P1;PMS_P2;Temp;Humidity;BMP_temperature;BMP_pressure;BME280_temperature;BME280_humidity;BME280_pressure;Samples;Min_cycle;Max_cycle;Signal;HPM_P1;HPM_P2
2024/02/22 00:02:23;;;;;;;;;;;;;;;2.83;100.00;100828.77;107911;1260;62032;-76
2024/02/22 00:04:50;;;;;;;;;;;;;;;2.89;100.00;100823.30;107965;1256;62235;-76
2024/02/22 00:07:16;;;;;;;;;;;;;;;2.91;100.00;100825.05;107922;1256;74239;-75
2024/02/22 00:09:43;;;;;;;;;;;;;;;2.95;100.00;100821.77;107913;1256;74076;-76
2024/02/22 00:12:10;;;;;;;;;;;;;;;2.97;100.00;100821.48;107766;1257;70240;-76
2024/02/22 00:14:39;;;;;;;;;;;;;;;2.96;100.00;100818.61;107948;1257;61944;-76
2024/02/22 00:17:06;;;;;;;;;;;;;;;2.97;100.00;100820.56;107957;1256;62182;-76
2024/02/22 00:19:33;;;;;;;;;;;;;;;2.91;100.00;100812.39;107970;1256;74258;-76
2024/02/22 00:22:00;;;;;;;;;;;;;;;2.91;100.00;100812.63;107928;1256;73044;-76
2024/02/22 00:24:27;;;;;;;;;;;;;;;2.85;100.00;100808.11;107937;1256;72679;-76
2024/02/22 00:26:54;;;;;;;;;;;;;;;2.76;100.00;100806.59;107955;1256;62033;-75
2024/02/22 00:29:20;;;;;;;;;;;;;;;2.64;100.00;100799.77;107868;1257;62057;-76
2024/02/22 00:31:47;;;;;;;;;;;;;;;2.46;100.00;100800.81;107953;1256;61977;-76
2024/02/22 00:34:14;;;;;;;;;;;;;;;2.36;100.00;100798.59;107960;1256;71564;-75
2024/02/22 00:36:42;;;;;;;;;;;;;;;2.24;100.00;100799.02;107898;1256;71662;-77
2024/02/22 00:39:11;;;;;;;;;;;;;;;2.19;100.00;100794.34;107913;1256;62054;-76
2024/02/22 00:41:39;;;;;;;;;;;;;;;2.20;100.00;100792.44;107952;1256;62031;-76
2024/02/22 00:44:07;;;;;;;;;;;;;;;2.17;100.00;100795.42;108049;1256;74288;-76
2024/02/22 00:46:35;;;;;;;;;;;;;;;2.15;100.00;100792.95;107938;1256;72610;-76
2024/02/22 00:49:02;;;;;;;;;;;;;;;2.13;100.00;100790.30;107818;1256;72478;-76
2024/02/22 00:51:29;;;;;;;;;;;;;;;2.10;100.00;100784.73;107903;1256;61921;-75
2024/02/22 00:53:57;;;;;;;;;;;;;;;2.05;100.00;100784.43;107884;1256;62018;-77
2024/02/22 00:56:24;;;;;;;;;;;;;;;2.01;100.00;100783.19;107910;1256;75226;-76
2024/02/22 00:58:50;;;;;;;;;;;;;;;1.98;100.00;100787.63;107949;1256;72811;-76
2024/02/22 01:01:17;;;;;;;;;;;;;;;1.95;100.00;100787.01;107838;1256;72525;-75
2024/02/22 01:03:44;;;;;;;;;;;;;;;1.92;100.00;100785.73;107965;1256;62103;-76
2024/02/22 01:06:13;;;;;;;;;;;;;;;1.89;100.00;100781.05;107923;1256;61951;-76
2024/02/22 01:08:40;;;;;;;;;;;;;;;1.86;100.00;100784.54;107738;1256;76277;-76
2024/02/22 01:11:10;;;;;;;;;;;;;;;1.87;100.00;100779.34;107891;1256;72630;-76
2024/02/22 01:13:37;;;;;;;;;;;;;;;1.92;100.00;100778.59;107942;1257;71882;-76
2024/02/22 01:16:05;;;;;;;;;;;;;;;1.98;100.00;100780.34;107912;1256;62069;-76
2024/02/22 01:18:33;;;;;;;;;;;;;;;2.04;100.00;100781.78;107898;1256;61958;-76
2024/02/22 01:21:00;;;;;;;;;;;;;;;2.15;100.00;100777.63;107990;1256;74417;-75
2024/02/22 01:23:27;;;;;;;;;;;;;;;2.25;100.00;100778.03;108290;1256;72475;-76
2024/02/22 01:25:54;;;;;;;;;;;;;;;2.32;100.00;100773.08;108084;1256;71813;-75
2024/02/22 01:28:21;;;;;;;;;;;;;;;2.39;100.00;100768.52;108250;1256;62116;-72
2024/02/22 01:30:48;;;;;;;;;;;;;;;2.44;100.00;100766.70;108250;1256;61948;-75
2024/02/22 01:33:17;;;;;;;;;;;;;;;2.47;100.00;100762.41;108464;1256;74519;-76
2024/02/22 01:35:44;;;;;;;;;;;;;;;2.50;100.00;100760.59;108051;1256;72566;-76
2024/02/22 01:38:11;;;;;;;;;;;;;;;2.53;100.00;100760.64;107965;1256;71313;-76
2024/02/22 01:40:38;;;;;;;;;;;;;;;2.61;100.00;100758.23;107978;1256;62073;-77
2024/02/22 01:43:06;;;;;;;;;;;;;;;2.69;100.00;100754.80;107944;1256;62095;-76
2024/02/22 01:45:33;;;;;;;;;;;;;;;2.73;100.00;100752.45;107988;1256;75611;-76
2024/02/22 01:48:00;;;;;;;;;;;;;;;2.77;100.00;100750.97;107994;1256;72553;-76
2024/02/22 01:50:27;;;;;;;;;;;;;;;2.80;100.00;100746.45;107841;1256;72858;-76
2024/02/22 01:52:55;;;;;;;;;;;;;;;2.82;100.00;100746.59;107962;1256;62089;-75
2024/02/22 01:55:23;;;;;;;;;;;;;;;2.86;100.00;100739.89;107956;1257;61945;-75
2024/02/22 01:57:51;;;;;;;;;;;;;;;2.90;100.00;100737.38;107944;1256;74062;-75
2024/02/22 02:00:23;;;;;;;;;;;;;;;2.95;100.00;100730.85;107930;1256;71236;-75
2024/02/22 02:02:50;;;;;;;;;;;;;;;2.97;100.00;100729.59;107798;1256;71498;-76
2024/02/22 02:05:17;;;;;;;;;;;;;;;3.00;100.00;100730.36;107819;1257;61954;-76
2024/02/22 02:07:44;;;;;;;;;;;;;;;3.01;100.00;100726.88;107910;1256;61952;-75
2024/02/22 02:10:11;;;;;;;;;;;;;;;2.98;100.00;100726.91;107928;1260;75979;-75
2024/02/22 02:12:38;;;;;;;;;;;;;;;2.95;100.00;100727.31;107968;1260;71642;-76
2024/02/22 02:15:05;;;;;;;;;;;;;;;2.90;100.00;100728.77;107872;1256;72515;-75
2024/02/22 02:17:32;;;;;;;;;;;;;;;2.88;100.00;100723.25;107942;1257;62164;-75
2024/02/22 02:20:03;;;;;;;;;;;;;;;2.87;100.00;100718.87;107909;1256;62066;-76
2024/02/22 02:22:49;;;;;;;;;;;;;;;2.86;100.00;100714.27;108005;1256;75492;-77
2024/02/22 02:25:17;;;;;;;;;;;;;;;2.82;100.00;100714.36;107812;1256;72515;-77
2024/02/22 02:27:44;;;;;;;;;;;;;;;2.82;100.00;100716.14;107939;1256;72551;-76
2024/02/22 02:30:11;;;;;;;;;;;;;;;2.83;100.00;100715.98;107997;1256;61954;-76
2024/02/22 02:32:38;;;;;;;;;;;;;;;2.83;100.00;100713.75;107894;1256;61978;-76
2024/02/22 02:35:05;;;;;;;;;;;;;;;2.82;100.00;100712.48;107980;1256;74633;-76
2024/02/22 02:37:34;;;;;;;;;;;;;;;2.80;100.00;100708.02;107961;1256;72671;-76
2024/02/22 02:40:01;;;;;;;;;;;;;;;2.80;100.00;100709.25;107935;1260;72485;-76
2024/02/22 02:42:28;;;;;;;;;;;;;;;2.79;100.00;100705.95;107900;1257;61907;-76
2024/02/22 02:44:55;;;;;;;;;;;;;;;2.82;100.00;100699.84;107998;1256;61795;-76
2024/02/22 02:47:22;;;;;;;;;;;;;;;2.86;100.00;100701.42;107920;1256;76883;-76
2024/02/22 02:49:49;;;;;;;;;;;;;;;2.90;100.00;100702.48;107959;1256;72659;-75
2024/02/22 02:52:16;;;;;;;;;;;;;;;2.92;100.00;100698.70;108004;1256;71752;-75
2024/02/22 02:54:43;;;;;;;;;;;;;;;2.95;100.00;100700.00;107941;1256;62086;-76
2024/02/22 02:57:09;;;;;;;;;;;;;;;2.97;100.00;100696.80;107930;1256;62037;-76
2024/02/22 02:59:36;;;;;;;;;;;;;;;2.99;100.00;100696.13;107829;1256;75411;-76
2024/02/22 03:02:03;;;;;;;;;;;;;;;3.00;100.00;100691.76;107969;1256;72509;-76
2024/02/22 03:04:30;;;;;;;;;;;;;;;3.01;100.00;100695.52;107879;1256;71562;-76
2024/02/22 03:06:57;;;;;;;;;;;;;;;3.01;100.00;100697.92;107870;1256;61915;-76
2024/02/22 03:09:24;;;;;;;;;;;;;;;3.02;100.00;100697.48;107907;1256;60001;-76
2024/02/22 03:11:50;;;;;;;;;;;;;;;3.04;100.00;100692.33;108026;1256;75301;-76
2024/02/22 03:14:17;;;;;;;;;;;;;;;3.05;100.00;100692.15;107975;1256;72649;-76
2024/02/22 03:16:45;;;;;;;;;;;;;;;3.05;100.00;100686.77;107961;1256;72599;-76
2024/02/22 03:19:11;;;;;;;;;;;;;;;3.04;100.00;100683.52;107923;1256;60935;-76
2024/02/22 03:21:38;;;;;;;;;;;;;;;3.03;100.00;100679.91;108005;1256;61949;-77
2024/02/22 03:24:07;;;;;;;;;;;;;;;3.03;100.00;100678.19;107873;1256;74136;-76
2024/02/22 03:26:34;;;;;;;;;;;;;;;3.03;100.00;100676.21;107993;1257;72007;-74
2024/02/22 03:29:01;;;;;;;;;;;;;;;3.03;100.00;100677.10;107973;1256;72274;-77
2024/02/22 03:31:28;;;;;;;;;;;;;;;3.04;100.00;100678.88;107937;1256;62050;-79
2024/02/22 03:33:55;;;;;;;;;;;;;;;3.05;100.00;100676.69;107945;1256;61917;-76
2024/02/22 03:36:22;;;;;;;;;;;;;;;3.06;100.00;100677.59;107973;1256;76001;-76
2024/02/22 03:38:49;;;;;;;;;;;;;;;3.08;100.00;100676.16;107918;1256;72744;-76
2024/02/22 03:41:24;;;;;;;;;;;;;;;3.11;100.00;100674.70;107848;1260;72506;-76
2024/02/22 03:43:52;;;;;;;;;;;;;;;3.13;100.00;100671.05;107949;1256;62639;-76
2024/02/22 03:46:19;;;;;;;;;;;;;;;3.15;100.00;100665.60;107928;1256;61955;-75
2024/02/22 03:48:46;;;;;;;;;;;;;;;3.13;100.00;100669.98;107860;1256;73972;-76
2024/02/22 03:51:15;;;;;;;;;;;;;;;3.14;100.00;100662.27;107950;1257;72701;-76
2024/02/22 03:53:42;;;;;;;;;;;;;;;3.16;100.00;100665.09;107861;1256;72431;-75
2024/02/22 03:56:09;;;;;;;;;;;;;;;3.16;100.00;100662.27;107942;1256;62066;-76
2024/02/22 03:58:37;;;;;;;;;;;;;;;3.14;100.00;100660.00;107926;1256;61928;-76
2024/02/22 04:01:06;;;;;;;;;;;;;;;3.12;100.00;100658.54;107951;1260;74586;-76
2024/02/22 04:03:34;;;;;;;;;;;;;;;3.13;100.00;100662.00;108015;1256;72957;-76
2024/02/22 04:06:01;;;;;;;;;;;;;;;3.13;100.00;100666.54;107944;1256;72499;-75
2024/02/22 04:08:28;;;;;;;;;;;;;;;3.13;100.00;100663.90;107909;1256;61919;-75
2024/02/22 04:10:55;;;;;;;;;;;;;;;3.12;100.00;100666.62;107919;1260;60661;-76
2024/02/22 04:13:24;;;;;;;;;;;;;;;3.11;100.00;100668.41;107980;1256;75307;-76
2024/02/22 04:15:51;;;;;;;;;;;;;;;3.14;100.00;100667.98;107989;1257;70680;-76
2024/02/22 04:18:18;;;;;;;;;;;;;;;3.14;100.00;100666.50;107922;1256;73501;-77
2024/02/22 04:20:45;;;;;;;;;;;;;;;3.12;100.00;100667.34;107922;1261;61987;-76
2024/02/22 04:23:12;;;;;;;;;;;;;;;3.14;100.00;100667.92;107981;1256;61961;-76
2024/02/22 04:25:41;;;;;;;;;;;;;;;3.15;100.00;100663.36;107970;1256;74702;-76
2024/02/22 04:28:10;;;;;;;;;;;;;;;3.19;100.00;100667.44;107938;1256;71258;-75
2024/02/22 04:30:38;;;;;;;;;;;;;;;3.20;100.00;100668.77;107941;1256;72638;-77
2024/02/22 04:33:04;;;;;;;;;;;;;;;3.22;100.00;100670.38;107954;1256;61787;-77
2024/02/22 04:35:31;;;;;;;;;;;;;;;3.25;100.00;100672.20;107971;1256;62029;-75
2024/02/22 04:37:59;;;;;;;;;;;;;;;3.28;100.00;100672.72;107950;1256;75764;-76
2024/02/22 04:40:27;;;;;;;;;;;;;;;3.31;100.00;100670.20;107913;1256;71807;-75
2024/02/22 04:42:54;;;;;;;;;;;;;;;3.32;100.00;100671.50;107839;1257;72229;-77
2024/02/22 04:45:22;;;;;;;;;;;;;;;3.34;100.00;100669.30;107813;1258;62085;-76
2024/02/22 04:47:50;;;;;;;;;;;;;;;3.37;100.00;100668.45;107862;1256;61992;-76
2024/02/22 04:50:17;;;;;;;;;;;;;;;3.39;100.00;100668.23;107885;1256;75117;-75
2024/02/22 04:52:44;;;;;;;;;;;;;;;3.41;100.00;100668.15;107958;1256;71391;-76
2024/02/22 04:55:11;;;;;;;;;;;;;;;3.42;100.00;100668.96;107910;1256;72900;-75
2024/02/22 04:57:38;;;;;;;;;;;;;;;3.44;100.00;100668.10;107924;1256;61194;-75
2024/02/22 05:00:08;;;;;;;;;;;;;;;3.47;100.00;100668.10;107948;1257;60159;-75
2024/02/22 05:02:35;;;;;;;;;;;;;;;3.50;100.00;100671.09;107997;1256;74058;-76
2024/02/22 05:05:03;;;;;;;;;;;;;;;3.54;100.00;100672.90;107983;1256;72589;-76
2024/02/22 05:07:30;;;;;;;;;;;;;;;3.59;100.00;100672.34;107925;1256;72533;-77
2024/02/22 05:09:57;;;;;;;;;;;;;;;3.62;100.00;100672.40;107943;1256;62564;-76
2024/02/22 05:12:24;;;;;;;;;;;;;;;3.64;100.00;100666.09;107972;1256;61931;-74
2024/02/22 05:14:51;;;;;;;;;;;;;;;3.65;100.00;100663.89;108012;1256;75325;-76
2024/02/22 05:17:21;;;;;;;;;;;;;;;3.64;100.00;100665.48;108058;1256;72683;-77
2024/02/22 05:19:48;;;;;;;;;;;;;;;3.62;100.00;100666.71;107938;1256;72504;-77
2024/02/22 05:22:16;;;;;;;;;;;;;;;3.64;100.00;100665.97;107997;1256;61962;-74
2024/02/22 05:24:42;;;;;;;;;;;;;;;3.67;100.00;100665.96;107991;1256;61967;-75
2024/02/22 05:27:10;;;;;;;;;;;;;;;3.70;100.00;100664.53;107917;1260;75485;-76
2024/02/22 05:29:37;;;;;;;;;;;;;;;3.74;100.00;100661.22;107922;1256;72778;-76
2024/02/22 05:32:05;;;;;;;;;;;;;;;3.77;100.00;100660.31;107989;1256;71497;-76
2024/02/22 05:34:33;;;;;;;;;;;;;;;3.79;100.00;100659.34;107896;1256;61040;-76
2024/02/22 05:37:00;;;;;;;;;;;;;;;3.83;100.00;100661.31;107961;1256;62016;-76
2024/02/22 05:39:26;;;;;;;;;;;;;;;3.85;100.00;100662.80;107688;1257;75488;-77
2024/02/22 05:41:53;;;;;;;;;;;;;;;3.85;100.00;100664.11;107944;1260;71641;-76
2024/02/22 05:44:20;;;;;;;;;;;;;;;3.90;100.00;100665.88;107997;1256;72791;-76
2024/02/22 05:46:47;;;;;;;;;;;;;;;3.95;100.00;100664.70;107925;1256;61103;-76
2024/02/22 05:49:15;;;;;;;;;;;;;;;4.03;100.00;100663.77;107986;1256;61247;-77
2024/02/22 05:51:43;;;;;;;;;;;;;;;4.09;100.00;100662.94;107981;1256;75849;-76
2024/02/22 05:54:10;;;;;;;;;;;;;;;4.15;100.00;100666.54;107926;1257;74021;-76
2024/02/22 05:56:45;;;;;;;;;;;;;;;4.21;100.00;100665.35;107911;1256;72780;-76
2024/02/22 05:59:13;;;;;;;;;;;;;;;4.24;100.00;100665.26;107855;1256;62016;-76
2024/02/22 06:01:54;;;;;;;;;;;;;;;4.27;100.00;100664.17;107807;1256;61799;-76
2024/02/22 06:04:42;;;;;;;;;;;;;;;4.32;100.00;100665.41;107973;1260;75618;-76
2024/02/22 06:07:09;;;;;;;;;;;;;;;4.36;100.00;100665.71;107722;1257;71520;-77
2024/02/22 06:09:37;;;;;;;;;;;;;;;4.39;100.00;100662.48;108004;1256;71606;-77
2024/02/22 06:12:03;;;;;;;;;;;;;;;4.38;100.00;100661.36;107908;1257;62152;-75
2024/02/22 06:14:30;;;;;;;;;;;;;;;4.36;100.00;100655.50;107897;1256;62479;-75
2024/02/22 06:16:58;;;;;;;;;;;;;;;4.33;100.00;100656.98;107972;1257;74997;-75
2024/02/22 06:19:25;;;;;;;;;;;;;;;4.30;100.00;100657.14;107706;1256;72832;-76
2024/02/22 06:21:51;;;;;;;;;;;;;;;4.30;100.00;100656.75;107860;1260;72704;-77
2024/02/22 06:24:21;;;;;;;;;;;;;;;4.33;100.00;100655.39;107815;1257;61243;-77
2024/02/22 06:26:48;;;;;;;;;;;;;;;4.36;100.00;100656.08;107897;1256;60168;-76
2024/02/22 06:29:16;;;;;;;;;;;;;;;4.42;100.00;100653.70;107791;1256;75151;-77
2024/02/22 06:31:43;;;;;;;;;;;;;;;4.50;100.00;100652.31;107949;1256;72149;-76
2024/02/22 06:34:10;;;;;;;;;;;;;;;4.57;100.00;100651.25;107869;1256;73742;-75
2024/02/22 06:36:39;;;;;;;;;;;;;;;4.61;100.00;100649.91;107913;1256;63055;-77
2024/02/22 06:39:08;;;;;;;;;;;;;;;4.66;100.00;100651.63;107891;1256;62382;-76
2024/02/22 06:41:35;;;;;;;;;;;;;;;4.74;100.00;100652.55;107930;1256;75682;-77
2024/02/22 06:44:02;;;;;;;;;;;;;;;4.79;100.00;100652.02;107898;1258;73848;-75
2024/02/22 06:46:29;;;;;;;;;;;;;;;4.83;100.00;100654.05;107970;1256;72382;-76
2024/02/22 06:48:57;;;;;;;;;;;;;;;4.89;100.00;100659.50;107988;1256;61899;-76
2024/02/22 06:51:24;;;;;;;;;;;;;;;4.92;100.00;100658.91;107950;1256;59637;-78
2024/02/22 06:53:51;;;;;;;;;;;;;;;5.02;100.00;100657.73;107927;1259;75288;-75
2024/02/22 06:56:18;;;;;;;;;;;;;;;5.05;100.00;100652.73;107851;1256;72793;-76
2024/02/22 06:58:45;;;;;;;;;;;;;;;5.13;100.00;100657.85;107939;1256;73931;-75
2024/02/22 07:01:13;;;;;;;;;;;;;;;5.21;100.00;100654.66;107942;1256;62068;-78
2024/02/22 07:03:40;;;;;;;;;;;;;;;5.29;100.00;100648.38;107928;1256;61926;-76
2024/02/22 07:06:08;;;;;;;;;;;;;;;5.43;100.00;100647.98;108024;1256;73983;-76
2024/02/22 07:08:35;;;;;;;;;;;;;;;5.54;100.00;100647.98;107957;1256;72916;-76
2024/02/22 07:11:04;;;;;;;;;;;;;;;5.65;100.00;100644.67;108002;1256;72507;-77
2024/02/22 07:13:35;;;;;;;;;;;;;;;5.80;100.00;100637.54;108013;1256;62777;-76
2024/02/22 07:16:03;;;;;;;;;;;;;;;5.91;100.00;100638.10;107978;1256;62064;-77
2024/02/22 07:18:30;;;;;;;;;;;;;;;6.07;100.00;100643.05;108035;1257;75810;-75
2024/02/22 07:20:57;;;;;;;;;;;;;;;6.20;100.00;100641.39;107952;1256;72752;-76
2024/02/22 07:23:25;;;;;;;;;;;;;;;6.31;100.00;100641.88;108017;1256;73954;-76
2024/02/22 07:25:52;;;;;;;;;;;;;;;6.41;100.00;100638.94;107977;1256;61905;-77
2024/02/22 07:28:33;;;;;;;;;;;;;;;6.50;100.00;100635.20;107978;1256;61236;-76
2024/02/22 07:31:07;;;;;;;;;;;;;;;6.56;100.00;100637.05;107980;1260;75675;-77
2024/02/22 07:33:35;;;;;;;;;;;;;;;6.61;100.00;100635.84;108319;1260;73184;-74
2024/02/22 07:36:01;;;;;;;;;;;;;;;6.68;100.00;100631.12;108493;1257;72294;-75
2024/02/22 07:38:30;;;;;;;;;;;;;;;6.77;100.00;100632.97;108472;1256;61983;-76
2024/02/22 07:41:05;;;;;;;;;;;;;;;6.88;100.00;100629.51;108134;1256;61910;-75
2024/02/22 07:43:32;;;;;;;;;;;;;;;6.98;100.00;100631.34;107996;1260;75701;-75
2024/02/22 07:46:02;;;;;;;;;;;;;;;7.07;100.00;100631.70;107819;1256;73722;-76
2024/02/22 07:48:31;;;;;;;;;;;;;;;7.17;100.00;100632.88;108010;1257;74367;-76
2024/02/22 07:50:59;;;;;;;;;;;;;;;7.28;100.00;100627.70;107908;1261;62143;-76
2024/02/22 07:53:27;;;;;;;;;;;;;;;7.39;100.00;100626.23;108004;1257;61910;-75
2024/02/22 07:55:54;;;;;;;;;;;;;;;7.47;100.00;100624.39;108012;1257;75586;-75
2024/02/22 07:58:23;;;;;;;;;;;;;;;7.52;100.00;100625.44;107974;1256;74037;-76
2024/02/22 08:00:49;;;;;;;;;;;;;;;7.60;100.00;100624.46;107976;1256;71402;-77
2024/02/22 08:03:16;;;;;;;;;;;;;;;7.66;100.00;100621.52;107966;1257;62142;-77
2024/02/22 08:05:45;;;;;;;;;;;;;;;7.72;100.00;100616.69;107769;1256;62114;-76
2024/02/22 08:08:15;;;;;;;;;;;;;;;7.78;100.00;100616.20;107975;1256;75208;-76
2024/02/22 08:10:43;;;;;;;;;;;;;;;7.85;100.00;100612.20;107998;1256;73528;-76
2024/02/22 08:13:13;;;;;;;;;;;;;;;7.96;100.00;100612.34;107977;1256;71389;-76
2024/02/22 08:15:40;;;;;;;;;;;;;;;8.04;100.00;100610.73;107889;1256;61876;-75
2024/02/22 08:18:07;;;;;;;;;;;;;;;8.10;100.00;100608.73;107805;1260;61955;-75
2024/02/22 08:20:37;;;;;;;;;;;;;;;8.18;100.00;100600.88;107828;1258;75245;-77
2024/02/22 08:23:08;;;;;;;;;;;;;;;8.29;100.00;100601.27;107955;1256;73821;-76
2024/02/22 08:25:39;;;;;;;;;;;;;;;8.37;100.00;100599.45;107891;1260;73992;-76
2024/02/22 08:28:11;;;;;;;;;;;;;;;8.52;100.00;100597.57;107698;1256;61957;-77
2024/02/22 08:31:17;;;;;;;;;;;;;;;8.72;100.00;100593.89;107945;1258;59381;-76
2024/02/22 08:33:47;;;;;;;;;;;;;;;8.97;100.00;100591.54;107832;1258;75382;-75
2024/02/22 08:36:16;;;;;;;;;;;;;;;9.16;100.00;100589.67;107989;1257;71787;-77
2024/02/22 08:38:43;;;;;;;;;;;;;;;9.27;100.00;100588.05;107943;1257;72459;-76
2024/02/22 08:41:12;;;;;;;;;;;;;;;9.34;100.00;100585.52;108050;1257;61823;-75
2024/02/22 08:43:41;;;;;;;;;;;;;;;9.37;100.00;100577.52;107997;1257;61948;-76
2024/02/22 08:46:08;;;;;;;;;;;;;;;9.39;100.00;100576.32;108057;1255;75646;-76
2024/02/22 08:48:36;;;;;;;;;;;;;;;9.38;100.00;100570.08;108015;1257;70510;-75
2024/02/22 08:51:03;;;;;;;;;;;;;;;9.35;100.00;100564.05;108044;1257;72891;-77
2024/02/22 08:53:30;;;;;;;;;;;;;;;9.31;100.00;100562.19;107993;1256;62034;-77
2024/02/22 08:55:57;;;;;;;;;;;;;;;9.33;100.00;100557.63;108085;1257;61878;-77
2024/02/22 08:58:25;;;;;;;;;;;;;;;9.38;100.00;100555.40;108026;1255;75586;-77
2024/02/22 09:00:53;;;;;;;;;;;;;;;9.42;100.00;100554.17;108040;1257;71991;-76
2024/02/22 09:03:19;;;;;;;;;;;;;;;9.49;100.00;100546.46;108064;1257;72729;-77
2024/02/22 09:05:46;;;;;;;;;;;;;;;9.64;100.00;100546.36;108019;1257;62908;-76
2024/02/22 09:08:16;;;;;;;;;;;;;;;9.76;100.00;100544.84;108060;1257;61921;-76
2024/02/22 09:10:47;;;;;;;;;;;;;;;9.86;100.00;100545.45;108066;1257;76427;-76
2024/02/22 09:13:15;;;;;;;;;;;;;;;9.86;100.00;100544.55;107938;1256;73878;-76
2024/02/22 09:15:49;;;;;;;;;;;;;;;9.89;100.00;100542.92;108051;1257;73909;-77
2024/02/22 09:18:17;;;;;;;;;;;;;;;9.96;100.00;100543.25;108013;1257;61981;-75
2024/02/22 09:20:47;;;;;;;;;;;;;;;9.93;100.00;100543.29;108003;1257;61951;-76
2024/02/22 09:23:15;;;;;;;;;;;;;;;9.91;100.00;100539.64;108046;1257;76503;-76
2024/02/22 09:25:42;;;;;;;;;;;;;;;9.90;100.00;100537.92;107992;1257;73877;-76
2024/02/22 09:28:10;;;;;;;;;;;;;;;9.86;100.00;100535.80;107977;1256;72780;-76
2024/02/22 09:30:37;;;;;;;;;;;;;;;9.87;100.00;100530.69;107927;1260;62236;-76
2024/02/22 09:33:04;;;;;;;;;;;;;;;9.89;100.00;100527.88;107757;1256;61909;-76
2024/02/22 09:35:31;;;;;;;;;;;;;;;9.97;100.00;100524.16;107961;1257;75283;-75
2024/02/22 09:37:58;;;;;;;;;;;;;;;10.12;100.00;100524.23;107928;1256;72866;-75
2024/02/22 09:40:28;;;;;;;;;;;;;;;10.22;100.00;100520.75;107959;1260;72789;-75
2024/02/22 09:42:57;;;;;;;;;;;;;;;10.26;100.00;100519.13;107984;1257;63103;-76
2024/02/22 09:45:24;;;;;;;;;;;;;;;10.27;100.00;100518.05;107906;1257;61913;-76
2024/02/22 09:47:51;;;;;;;;;;;;;;;10.27;100.00;100516.17;107919;1260;75318;-76
2024/02/22 09:50:20;;;;;;;;;;;;;;;10.27;100.00;100512.16;107784;1257;72770;-76
2024/02/22 09:52:47;;;;;;;;;;;;;;;10.25;100.00;100510.46;107821;1260;330403;-73
2024/02/22 09:55:14;;;;;;;;;;;;;;;10.27;100.00;100506.41;107910;1257;61945;-76
2024/02/22 09:57:41;;;;;;;;;;;;;;;10.29;100.00;100501.39;107859;1260;61876;-75
2024/02/22 10:00:09;;;;;;;;;;;;;;;10.32;100.00;100498.32;107914;1260;74528;-75
2024/02/22 10:02:43;;;;;;;;;;;;;;;10.39;100.00;100497.46;108007;1256;72984;-77
2024/02/22 10:05:12;;;;;;;;;;;;;;;10.47;100.00;100495.48;107971;1256;72951;-75
2024/02/22 10:07:43;;;;;;;;;;;;;;;10.56;100.00;100496.93;107924;1256;62455;-75
2024/02/22 10:10:10;;;;;;;;;;;;;;;10.69;100.00;100494.23;107739;1257;61317;-76
2024/02/22 10:12:43;;;;;;;;;;;;;;;10.86;100.00;100488.59;108028;1260;75685;-75
2024/02/22 10:15:18;;;;;;;;;;;;;;;11.02;100.00;100485.61;107934;1256;72777;-76
2024/02/22 10:17:44;;;;;;;;;;;;;;;11.07;100.00;100479.96;107989;1256;71387;-76
2024/02/22 10:20:12;;;;;;;;;;;;;;;11.10;100.00;100480.34;107850;1257;61913;-75
2024/02/22 10:22:39;;;;;;;;;;;;;;;11.11;99.43;100477.30;107941;1260;62580;-76
2024/02/22 10:25:10;;;;;;;;;;;;;;;11.08;98.43;100475.25;107946;1256;73315;-77
2024/02/22 10:27:37;;;;;;;;;;;;;;;11.10;97.38;100473.81;107909;1256;73104;-77
2024/02/22 10:30:10;;;;;;;;;;;;;;;11.14;97.66;100471.92;107910;1259;73840;-76
2024/02/22 10:32:41;;;;;;;;;;;;;;;11.15;94.80;100468.88;107933;1260;61304;-76
2024/02/22 10:35:11;;;;;;;;;;;;;;;11.12;94.44;100467.46;107995;1256;61890;-76
2024/02/22 10:37:38;;;;;;;;;;;;;;;11.05;94.03;100462.42;107989;1260;75314;-75
2024/02/22 10:40:05;;;;;;;;;;;;;;;11.00;94.63;100462.58;107951;1259;71827;-76
2024/02/22 10:42:33;;;;;;;;;;;;;;;11.01;95.53;100462.15;107984;1257;71722;-77
2024/02/22 10:45:00;;;;;;;;;;;;;;;11.06;95.33;100459.48;107806;1260;61957;-75
2024/02/22 10:47:27;;;;;;;;;;;;;;;11.14;96.55;100452.77;108062;1260;61951;-76
2024/02/22 10:49:55;;;;;;;;;;;;;;;11.29;97.10;100453.73;107820;1262;74463;-75
2024/02/22 10:52:24;;;;;;;;;;;;;;;11.45;96.05;100453.11;108045;1259;73780;-75
2024/02/22 10:54:57;;;;;;;;;;;;;;;11.51;92.09;100447.71;107844;1256;73974;-76
2024/02/22 10:57:24;;;;;;;;;;;;;;;11.56;90.91;100448.80;107719;1257;62070;-75
2024/02/22 10:59:52;;;;;;;;;;;;;;;11.59;89.70;100440.30;107998;1257;61120;-76
2024/02/22 11:02:19;;;;;;;;;;;;;;;11.59;87.76;100440.67;107980;1260;76445;-75
2024/02/22 11:04:46;;;;;;;;;;;;;;;11.60;87.41;100444.48;108033;1258;72684;-78
2024/02/22 11:07:13;;;;;;;;;;;;;;;11.63;87.09;100438.38;108016;1257;71598;-76
2024/02/22 11:09:41;;;;;;;;;;;;;;;11.69;87.57;100433.55;107805;1258;62053;-77
2024/02/22 11:12:10;;;;;;;;;;;;;;;11.83;87.60;100435.98;107992;1257;61978;-76
2024/02/22 11:14:40;;;;;;;;;;;;;;;11.93;85.73;100432.25;107997;1260;76583;-77
2024/02/22 11:17:17;;;;;;;;;;;;;;;12.00;84.62;100429.46;107839;1257;72460;-76
2024/02/22 11:19:44;;;;;;;;;;;;;;;12.08;85.05;100428.86;107887;1258;73937;-76
2024/02/22 11:22:15;;;;;;;;;;;;;;;12.20;84.96;100426.33;108029;1257;62028;-75
2024/02/22 11:24:47;;;;;;;;;;;;;;;12.27;83.06;100420.21;107945;1257;60843;-76
2024/02/22 11:27:17;;;;;;;;;;;;;;;12.31;81.95;100416.72;107964;1257;74976;-76
2024/02/22 11:29:44;;;;;;;;;;;;;;;12.34;81.49;100415.86;107796;1258;74462;-77
2024/02/22 11:32:11;;;;;;;;;;;;;;;12.36;80.20;100409.64;107922;1262;70777;-76
2024/02/22 11:34:38;;;;;;;;;;;;;;;12.39;79.55;100412.04;107812;1256;61535;-75
2024/02/22 11:37:09;;;;;;;;;;;;;;;12.46;79.86;100405.70;108100;1259;61934;-75
2024/02/22 11:39:36;;;;;;;;;;;;;;;12.60;79.85;100404.73;107790;1257;75371;-76
2024/02/22 11:42:05;;;;;;;;;;;;;;;12.72;78.75;100403.94;108065;1257;72763;-75
2024/02/22 11:44:32;;;;;;;;;;;;;;;12.83;78.10;100400.34;108026;1256;71846;-74
2024/02/22 11:46:59;;;;;;;;;;;;;;;12.93;77.21;100394.40;108057;1257;61910;-74
2024/02/22 11:49:26;;;;;;;;;;;;;;;12.97;76.04;100391.17;107988;1260;62050;-76
2024/02/22 11:51:53;;;;;;;;;;;;;;;12.85;73.75;100390.42;107984;1256;75382;-75
2024/02/22 11:54:22;;;;;;;;;;;;;;;12.73;73.47;100393.01;107982;1260;72868;-75
2024/02/22 11:56:52;;;;;;;;;;;;;;;12.63;73.94;100392.23;107956;1258;73731;-76
2024/02/22 11:59:19;;;;;;;;;;;;;;;12.54;74.13;100387.19;107938;1257;61909;-76
2024/02/22 12:01:46;;;;;;;;;;;;;;;12.44;74.25;100389.58;107921;1258;61967;-76
2024/02/22 12:04:14;;;;;;;;;;;;;;;12.28;73.97;100382.23;107977;1257;74315;-74
2024/02/22 12:06:41;;;;;;;;;;;;;;;12.08;74.35;100379.18;107778;1262;71483;-75
2024/02/22 12:09:08;;;;;;;;;;;;;;;11.93;75.03;100378.23;107955;1257;72575;-75
2024/02/22 12:11:36;;;;;;;;;;;;;;;11.85;76.18;100378.19;107849;1257;62021;-76
2024/02/22 12:14:04;;;;;;;;;;;;;;;11.85;77.24;100375.04;107677;1263;61883;-76
2024/02/22 12:16:31;;;;;;;;;;;;;;;11.87;77.26;100377.22;107860;1260;75456;-76
2024/02/22 12:18:59;;;;;;;;;;;;;;;11.87;77.46;100372.20;107771;1256;72681;-76
2024/02/22 12:21:27;;;;;;;;;;;;;;;11.86;77.02;100371.29;107967;1257;71724;-76
2024/02/22 12:23:57;;;;;;;;;;;;;;;11.80;76.56;100370.79;107945;1257;61948;-75
2024/02/22 12:26:24;;;;;;;;;;;;;;;11.73;76.86;100370.31;107986;1256;61841;-75
2024/02/22 12:28:53;;;;;;;;;;;;;;;11.66;77.33;100369.84;107953;1257;74716;-75
2024/02/22 12:31:20;;;;;;;;;;;;;;;11.67;77.99;100367.95;107925;1257;71875;-76